Millerville, Alabama
Current Conditions -  °F | °C
As of 11:35 AM on Friday 24 Oct 2014 (Local Time) from KALX Reporting Station
Clear Clear  
Wind Chill: 69°   Ceiling: Unl
Heat Index: 69°   Visibility: 10mi
Dew Point: 48°   Wind: 6mph
Humidity: 49%   Direction: 360°N
Pressure: 30.08"   Gusts: NA
Location:  33.19°N, 85.93°W
Report Text: KALX 241635Z AUTO 36005KT 10SM CLR 20/09 A3008 RMK AO2 T02030091
Loading
Personal Weather Stations






























Interactive Weather Map
Tropical Storm Tracking
New forecast layout! Learn more

10-Day Weather Forecast

Advertisements
Track Severe Weather on mobile